Time;durP1;ratioP1;P1;durP2;ratioP2;P2;SDS_P1;SDS_P2;PMS_P1;PMS_P2;Temp;Humidity;BMP_temperature;BMP_pressure;BME280_temperature;BME280_humidity;BME280_pressure;Samples;Min_cycle;Max_cycle;Signal;HPM_P1;HPM_P2
2024/04/23 00:00:04;;;;;;;;;12.25;8.50;;;;;7.13;59.59;101580.75;5464702;25;44302;-59
2024/04/23 00:02:30;;;;;;;;;7.25;7.00;;;;;7.11;59.39;101577.28;5461000;25;45132;-58
2024/04/23 00:04:55;;;;;;;;;8.00;7.00;;;;;7.08;60.99;101577.28;5455746;25;70843;-58
2024/04/23 00:07:20;;;;;;;;;15.50;9.25;;;;;7.04;59.43;101582.47;5454556;25;69299;-59
2024/04/23 00:09:48;;;;;;;;;10.00;8.75;;;;;7.02;60.85;101580.75;5463361;25;73225;-59
2024/04/23 00:12:13;;;;;;;;;12.50;10.25;;;;;6.96;59.52;101571.19;5462712;26;44835;-59
2024/04/23 00:14:39;;;;;;;;;20.50;13.25;;;;;6.93;59.84;101570.31;5453182;25;70810;-59
2024/04/23 00:17:04;;;;;;;;;20.00;14.00;;;;;6.89;60.50;101571.16;5492852;25;49976;-59
2024/04/23 00:19:30;;;;;;;;;23.75;19.25;;;;;6.82;59.99;101573.78;5430516;26;44151;-59
2024/04/23 00:21:55;;;;;;;;;25.75;15.75;;;;;6.77;60.51;101562.47;5453903;25;44846;-61
2024/04/23 00:24:20;;;;;;;;;24.50;16.25;;;;;6.74;61.47;101562.47;5463062;26;53222;-60
2024/04/23 00:26:56;;;;;;;;;20.00;13.25;;;;;6.74;61.27;101566.81;5453740;26;68364;-61
2024/04/23 00:29:21;;;;;;;;;20.50;12.50;;;;;6.69;61.22;101560.72;5450785;25;43925;-62
2024/04/23 00:31:47;;;;;;;;;16.00;12.50;;;;;6.68;60.51;101559.00;5442123;26;72940;-58
2024/04/23 00:34:12;;;;;;;;;14.25;10.25;;;;;6.64;60.50;101551.19;5459280;25;43842;-57
2024/04/23 00:36:37;;;;;;;;;8.50;6.75;;;;;6.64;61.21;101559.00;5456159;26;67964;-60
2024/04/23 00:39:03;;;;;;;;;7.75;7.50;;;;;6.61;61.21;101551.19;5455706;25;72066;-60
2024/04/23 00:41:29;;;;;;;;;4.25;3.00;;;;;6.61;61.55;101547.72;5436905;26;71181;-58
2024/04/23 00:43:54;;;;;;;;;8.25;6.00;;;;;6.58;60.59;101556.38;5407185;26;44949;-59
2024/04/23 00:46:21;;;;;;;;;8.00;4.00;;;;;6.54;61.06;101549.44;5454029;25;54831;-59
2024/04/23 00:48:47;;;;;;;;;8.00;5.25;;;;;6.54;61.49;101556.38;5433705;26;43844;-60
2024/04/23 00:51:12;;;;;;;;;4.00;2.00;;;;;6.51;61.21;101552.00;5448736;26;65684;-60
2024/04/23 00:53:37;;;;;;;;;5.75;5.75;;;;;6.49;61.18;101555.47;5455043;26;72755;-58
2024/04/23 00:56:04;;;;;;;;;7.75;4.00;;;;;6.46;60.77;101554.63;5458657;26;61989;-57
2024/04/23 00:58:29;;;;;;;;;6.50;4.00;;;;;6.43;61.18;101556.34;5452976;25;44092;-57
2024/04/23 01:00:55;;;;;;;;;8.50;4.50;;;;;6.39;61.67;101552.84;5456663;26;68434;-58
2024/04/23 01:03:21;;;;;;;;;3.75;2.00;;;;;6.37;60.79;101554.56;5464428;25;44188;-57
2024/04/23 01:05:46;;;;;;;;;7.00;4.00;;;;;6.35;61.67;101550.22;5458853;25;62237;-55
2024/04/23 01:08:11;;;;;;;;;8.25;6.00;;;;;6.34;61.85;101551.09;5456549;26;72138;-59
2024/04/23 01:10:37;;;;;;;;;6.75;3.75;;;;;6.34;61.08;101551.09;5459606;25;75233;-58
2024/04/23 01:13:02;;;;;;;;;7.00;2.00;;;;;6.30;62.08;101550.19;5436899;26;44315;-58
2024/04/23 01:15:28;;;;;;;;;6.50;4.50;;;;;6.26;61.90;101538.06;5460807;26;56611;-58
2024/04/23 01:17:57;;;;;;;;;4.50;4.00;;;;;6.23;61.53;101536.34;5436876;26;44162;-59
2024/04/23 01:20:23;;;;;;;;;7.00;7.00;;;;;6.22;60.97;101533.72;5440885;26;44986;-59
2024/04/23 01:22:57;;;;;;;;;6.25;4.00;;;;;6.18;62.10;101538.03;5459880;26;44293;-56
2024/04/23 01:25:23;;;;;;;;;7.25;6.00;;;;;6.17;61.69;101540.63;5452928;26;43949;-59
2024/04/23 01:27:48;;;;;;;;;6.75;5.00;;;;;6.15;61.45;101539.75;5457325;25;46060;-58
2024/04/23 01:30:15;;;;;;;;;4.00;4.00;;;;;6.14;62.19;101538.88;5445431;26;46188;-60
2024/04/23 01:32:42;;;;;;;;;6.25;4.00;;;;;6.12;62.85;101526.75;5443559;26;44008;-59
2024/04/23 01:35:08;;;;;;;;;8.00;3.75;;;;;6.11;62.79;101536.28;5457224;26;43748;-60
2024/04/23 01:37:35;;;;;;;;;6.50;5.50;;;;;6.10;62.18;101531.94;5450528;26;44079;-59
2024/04/23 01:40:01;;;;;;;;;5.75;3.75;;;;;6.02;62.89;101518.03;5440274;26;74320;-60
2024/04/23 01:42:27;;;;;;;;;3.75;3.25;;;;;6.06;62.02;101540.59;5443655;26;44369;-60
2024/04/23 01:44:53;;;;;;;;;4.00;4.00;;;;;6.04;62.28;101537.97;5434639;26;69383;-60
2024/04/23 01:47:18;;;;;;;;;5.50;4.00;;;;;6.02;62.37;101541.41;5445864;26;71769;-61
2024/04/23 01:49:44;;;;;;;;;6.25;2.75;;;;;6.00;62.48;101544.03;5458036;26;44738;-60
2024/04/23 01:52:09;;;;;;;;;4.50;4.00;;;;;5.97;62.77;101543.16;5452045;26;68774;-60
2024/04/23 01:54:35;;;;;;;;;5.25;3.75;;;;;5.95;62.73;101539.63;5462360;25;68188;-60
2024/04/23 01:57:04;;;;;;;;;7.25;6.00;;;;;5.99;63.28;101546.63;5461207;26;72169;-59
2024/04/23 01:59:29;;;;;;;;;8.75;6.00;;;;;5.98;62.22;101540.53;5454658;26;44021;-59
2024/04/23 02:01:55;;;;;;;;;6.25;5.50;;;;;5.99;63.49;101544.03;5460249;26;71057;-58
2024/04/23 02:04:22;;;;;;;;;8.50;6.50;;;;;5.99;63.46;101539.69;5458486;26;68357;-59
2024/04/23 02:06:47;;;;;;;;;8.75;6.00;;;;;6.00;62.99;101540.53;5451027;26;44378;-57
2024/04/23 02:09:13;;;;;;;;;7.00;5.50;;;;;5.99;63.46;101531.88;5448815;25;44556;-57
2024/04/23 02:11:40;;;;;;;;;11.25;8.75;;;;;5.99;64.02;101533.63;5455867;26;71510;-56
2024/04/23 02:14:06;;;;;;;;;9.00;7.25;;;;;5.99;63.73;101533.63;5436892;26;43784;-57
2024/04/23 02:16:31;;;;;;;;;7.50;5.00;;;;;5.97;63.70;101528.44;5446720;26;70219;-52
2024/04/23 02:18:56;;;;;;;;;7.25;6.00;;;;;5.97;65.04;101532.75;5450469;26;43887;-56
2024/04/23 02:21:21;;;;;;;;;11.25;7.00;;;;;5.95;63.63;101529.22;5443296;26;71435;-55
2024/04/23 02:23:47;;;;;;;;;7.00;3.25;;;;;5.90;64.41;101524.03;5428824;26;69299;-60
2024/04/23 02:26:12;;;;;;;;;6.75;6.00;;;;;5.86;63.52;101522.25;5432216;26;43739;-59
2024/04/23 02:28:38;;;;;;;;;8.00;4.50;;;;;5.82;63.62;101526.56;5458740;26;74550;-59
2024/04/23 02:31:03;;;;;;;;;9.00;6.25;;;;;5.80;63.68;101514.44;5442929;26;71106;-59
2024/04/23 02:33:29;;;;;;;;;5.50;4.50;;;;;5.78;63.69;101511.84;5450948;26;44572;-59
2024/04/23 02:35:56;;;;;;;;;6.00;5.00;;;;;5.76;64.07;101507.50;5465051;26;58434;-58
2024/04/23 02:38:21;;;;;;;;;8.25;3.50;;;;;5.74;64.57;101511.78;5453449;25;45199;-55
2024/04/23 02:40:46;;;;;;;;;7.50;6.00;;;;;5.70;64.44;101503.13;5458939;26;61945;-56
2024/04/23 02:43:12;;;;;;;;;7.75;6.00;;;;;5.67;63.99;101510.91;5442308;26;67017;-55
2024/04/23 02:45:37;;;;;;;;;8.50;7.00;;;;;5.62;64.52;101503.09;5442281;25;71896;-56
2024/04/23 02:48:02;;;;;;;;;7.25;7.25;;;;;5.58;64.02;101501.34;5458559;25;74263;-56
2024/04/23 02:50:28;;;;;;;;;12.50;5.50;;;;;5.55;64.36;101498.72;5438484;26;43924;-58
2024/04/23 02:52:53;;;;;;;;;8.50;5.25;;;;;5.55;65.85;101500.47;5446691;26;44209;-60
2024/04/23 02:55:18;;;;;;;;;7.75;6.00;;;;;5.54;65.29;101496.13;5460971;26;70914;-60
2024/04/23 02:57:44;;;;;;;;;8.00;7.00;;;;;5.53;65.72;101497.84;5464080;25;61503;-59
2024/04/23 03:00:09;;;;;;;;;11.25;6.75;;;;;5.51;65.40;101495.25;5435482;25;72932;-58
2024/04/23 03:02:35;;;;;;;;;6.00;4.00;;;;;5.46;64.95;101494.34;5459953;25;43768;-58
2024/04/23 03:05:00;;;;;;;;;10.50;7.75;;;;;5.41;65.29;101489.97;5456775;26;43620;-60
2024/04/23 03:07:26;;;;;;;;;8.00;7.00;;;;;5.44;64.64;101497.81;5468606;25;44771;-60
2024/04/23 03:09:51;;;;;;;;;9.50;8.50;;;;;5.42;66.02;101502.09;5449101;25;69586;-60
2024/04/23 03:12:16;;;;;;;;;9.25;7.00;;;;;5.42;65.78;101499.50;5461272;26;66982;-60
2024/04/23 03:14:42;;;;;;;;;8.25;7.00;;;;;5.37;65.26;101502.06;5461348;25;72904;-58
2024/04/23 03:17:07;;;;;;;;;6.25;6.25;;;;;5.37;65.13;101489.09;5453439;26;43741;-56
2024/04/23 03:19:32;;;;;;;;;11.75;6.50;;;;;5.34;65.86;101481.28;5445982;26;68817;-56
2024/04/23 03:21:58;;;;;;;;;8.25;6.00;;;;;5.32;64.76;101493.38;5439754;26;68306;-57
2024/04/23 03:24:24;;;;;;;;;12.25;9.25;;;;;5.29;64.98;101483.88;5454009;26;45355;-57
2024/04/23 03:26:50;;;;;;;;;11.25;8.00;;;;;5.27;65.59;101482.09;5459373;26;43948;-57
2024/04/23 03:29:16;;;;;;;;;10.00;7.25;;;;;5.27;65.40;101474.31;5447380;26;44016;-57
2024/04/23 03:31:41;;;;;;;;;7.50;7.00;;;;;5.26;65.27;101481.25;5431637;25;43733;-56
2024/04/23 03:34:06;;;;;;;;;8.00;7.00;;;;;5.27;66.30;101484.69;5453590;26;72675;-57
2024/04/23 03:36:32;;;;;;;;;12.50;7.50;;;;;5.26;66.29;101480.38;5440566;26;67021;-58
2024/04/23 03:38:57;;;;;;;;;11.00;7.75;;;;;5.24;65.44;101482.97;5438060;26;71225;-59
2024/04/23 03:41:22;;;;;;;;;12.00;7.25;;;;;5.19;65.75;101470.78;5450131;26;65463;-58
2024/04/23 03:43:48;;;;;;;;;10.00;9.25;;;;;5.22;66.12;101482.06;5451757;26;44873;-57
2024/04/23 03:46:13;;;;;;;;;16.50;11.50;;;;;5.23;65.90;101478.63;5455587;26;43797;-57
2024/04/23 03:48:38;;;;;;;;;11.25;8.00;;;;;5.22;66.07;101474.28;5465944;25;43958;-57
2024/04/23 03:51:04;;;;;;;;;8.00;8.00;;;;;5.22;66.56;101478.59;5454632;25;68167;-57
2024/04/23 03:53:31;;;;;;;;;15.00;11.25;;;;;5.19;66.77;101469.09;5464645;25;43806;-58
2024/04/23 03:55:56;;;;;;;;;16.25;11.00;;;;;5.19;67.27;101484.66;5466682;26;43828;-59
2024/04/23 03:58:22;;;;;;;;;8.00;7.75;;;;;5.18;66.58;101476.84;5444952;25;43924;-57
2024/04/23 04:00:47;;;;;;;;;13.75;11.00;;;;;5.16;66.24;101484.63;5444416;26;67175;-55
2024/04/23 04:06:06;;;;;;;;;13.25;9.00;;;;;5.13;66.29;101480.28;5465528;26;43693;-58
2024/04/23 04:08:33;;;;;;;;;11.75;8.50;;;;;5.12;66.55;101475.09;5444732;25;44001;-58
2024/04/23 04:10:58;;;;;;;;;10.50;9.75;;;;;5.12;67.28;101481.13;5457732;25;43975;-59
2024/04/23 04:13:23;;;;;;;;;10.50;9.25;;;;;5.12;67.30;101488.06;5461130;25;45742;-58
2024/04/23 04:15:49;;;;;;;;;15.00;9.00;;;;;5.10;67.71;101480.25;5463969;25;43889;-59
2024/04/23 04:18:15;;;;;;;;;11.00;6.25;;;;;5.09;67.49;101482.84;5452423;26;44060;-59
2024/04/23 04:20:40;;;;;;;;;11.50;9.00;;;;;5.09;66.92;101493.22;5459487;26;43992;-58
2024/04/23 04:23:05;;;;;;;;;19.25;12.00;;;;;5.09;66.96;101488.88;5445318;26;62214;-59
2024/04/23 04:25:31;;;;;;;;;11.00;10.00;;;;;5.09;67.58;101495.81;5451465;25;74300;-61
2024/04/23 04:27:56;;;;;;;;;16.75;13.00;;;;;5.06;66.90;101485.41;5453001;26;58931;-58
2024/04/23 04:30:21;;;;;;;;;18.25;12.50;;;;;5.06;67.14;101495.78;5446665;25;43885;-59
2024/04/23 04:32:47;;;;;;;;;17.25;11.00;;;;;5.05;67.67;101491.47;5439330;25;66731;-59
2024/04/23 04:35:12;;;;;;;;;13.50;10.25;;;;;5.04;67.10;101495.75;5462556;25;74780;-54
2024/04/23 04:37:37;;;;;;;;;16.75;10.25;;;;;5.03;66.51;101491.44;5438087;26;66308;-57
2024/04/23 04:40:03;;;;;;;;;15.50;12.00;;;;;5.03;66.97;101496.63;5460045;25;68095;-56
2024/04/23 04:42:28;;;;;;;;;14.75;12.00;;;;;5.03;67.80;101500.94;5464035;25;44094;-59
2024/04/23 04:44:54;;;;;;;;;16.50;11.25;;;;;5.00;66.81;101504.38;5449542;26;73928;-59
2024/04/23 04:47:19;;;;;;;;;15.00;10.25;;;;;4.97;67.71;101499.16;5444421;26;56866;-59
2024/04/23 04:49:44;;;;;;;;;12.00;10.25;;;;;4.93;67.83;101498.28;5461068;25;68020;-59
2024/04/23 04:52:10;;;;;;;;;20.00;12.75;;;;;4.92;67.46;101512.13;5453351;25;70922;-57
2024/04/23 04:54:35;;;;;;;;;17.25;13.00;;;;;4.91;68.15;101510.38;5435913;25;44667;-57
2024/04/23 04:57:00;;;;;;;;;19.25;12.75;;;;;4.92;67.89;101508.63;5439048;26;43726;-58
2024/04/23 04:59:26;;;;;;;;;17.25;13.00;;;;;4.90;67.76;101506.00;5428371;26;44018;-58
2024/04/23 05:01:51;;;;;;;;;13.00;11.75;;;;;4.90;68.09;101508.59;5447434;26;43869;-60
2024/04/23 05:04:16;;;;;;;;;15.75;14.75;;;;;4.95;67.74;101512.13;5444793;26;64821;-59
2024/04/23 05:06:42;;;;;;;;;16.50;12.25;;;;;4.93;68.75;101513.84;5465042;25;67276;-58
2024/04/23 05:09:07;;;;;;;;;15.00;13.00;;;;;4.95;68.32;101517.31;5454522;25;67097;-59
2024/04/23 05:11:32;;;;;;;;;17.75;13.50;;;;;4.97;68.15;101512.13;5445877;25;65980;-55
2024/04/23 05:13:58;;;;;;;;;18.00;16.00;;;;;4.94;68.04;101517.31;5454985;25;45204;-57
2024/04/23 05:16:23;;;;;;;;;20.00;15.00;;;;;4.90;68.24;101524.16;5443925;26;47580;-57
2024/04/23 05:18:48;;;;;;;;;17.75;16.00;;;;;4.88;67.69;101519.84;5437115;26;61302;-57
2024/04/23 05:21:14;;;;;;;;;25.50;18.25;;;;;4.86;69.08;101529.34;5456457;26;71795;-57
2024/04/23 05:23:39;;;;;;;;;20.25;17.25;;;;;4.85;68.38;101528.47;5454584;25;75288;-59
2024/04/23 05:26:04;;;;;;;;;17.75;15.00;;;;;4.85;68.85;101525.88;5440256;26;71998;-59
2024/04/23 05:28:30;;;;;;;;;20.25;16.75;;;;;4.86;68.51;101527.59;5428201;26;64259;-58
2024/04/23 05:33:39;;;;;;;;;21.00;16.25;;;;;4.90;71.05;101531.94;5450120;26;43915;-54
2024/04/23 05:36:04;;;;;;;;;20.50;19.25;;;;;4.94;70.32;101532.88;5428105;26;72949;-51
2024/04/23 05:38:30;;;;;;;;;25.75;19.25;;;;;5.00;69.52;101538.09;5428822;26;43810;-53
2024/04/23 05:40:55;;;;;;;;;23.25;18.75;;;;;5.01;69.52;101537.25;5442978;26;43881;-54
2024/04/23 05:43:20;;;;;;;;;25.00;20.50;;;;;5.02;69.12;101540.72;5442799;25;74079;-53
2024/04/23 05:45:46;;;;;;;;;28.00;19.50;;;;;4.99;69.36;101538.94;5453431;25;43784;-53
2024/04/23 05:48:49;;;;;;;;;24.00;20.00;;;;;4.96;70.18;101546.72;5447985;25;69296;-57
2024/04/23 05:51:52;;;;;;;;;30.25;23.75;;;;;4.95;69.66;101547.56;5429360;26;44067;-58
2024/04/23 05:54:55;;;;;;;;;37.25;29.00;;;;;4.98;70.51;101551.94;5431123;26;45503;-52
2024/04/23 05:57:20;;;;;;;;;25.00;22.25;;;;;4.98;70.71;101552.78;5446923;26;43916;-52
2024/04/23 05:59:45;;;;;;;;;27.00;20.00;;;;;5.01;69.52;101545.03;5448988;25;68156;-56
2024/04/23 06:02:11;;;;;;;;;32.75;21.00;;;;;5.03;70.69;101545.94;5426578;26;70588;-56
2024/04/23 06:04:36;;;;;;;;;24.67;22.00;;;;;5.05;70.92;101554.59;5448081;26;74199;-57
2024/04/23 06:07:01;;;;;;;;;24.25;18.25;;;;;5.06;70.49;101550.25;5454975;26;52351;-58
2024/04/23 06:09:28;;;;;;;;;27.67;22.00;;;;;5.05;70.85;101546.81;5445135;25;66444;-51
2024/04/23 06:11:54;;;;;;;;;31.75;22.50;;;;;5.00;70.51;101552.81;5453728;25;43885;-58
2024/04/23 06:14:19;;;;;;;;;20.00;13.00;;;;;4.97;70.31;101551.03;5476703;25;45779;-54
2024/04/23 06:16:45;;;;;;;;;25.25;24.25;;;;;4.99;70.54;101561.44;5439084;25;70815;-55
2024/04/23 06:19:10;;;;;;;;;31.67;22.33;;;;;5.01;70.51;101557.13;5448519;25;68229;-54
2024/04/23 06:21:36;;;;;;;;;26.00;19.00;;;;;5.06;70.44;101558.03;5431196;26;44135;-50
2024/04/23 06:24:01;;;;;;;;;26.50;20.50;;;;;5.12;70.75;101556.38;5433815;26;71242;-53
2024/04/23 06:26:26;;;;;;;;;31.00;23.00;;;;;5.18;70.96;101558.16;5429091;26;63095;-55
2024/04/23 06:28:52;;;;;;;;;29.25;20.50;;;;;5.22;69.87;101565.09;5432121;26;66374;-54
2024/04/23 06:31:17;;;;;;;;;35.00;23.75;;;;;5.24;70.37;101555.63;5440031;26;43952;-54
2024/04/23 06:33:42;;;;;;;;;38.00;30.50;;;;;5.27;69.67;101552.16;5450232;25;44887;-57
2024/04/23 06:36:08;;;;;;;;;32.50;24.75;;;;;5.29;69.58;101555.63;5479752;25;72885;-59
2024/04/23 06:38:33;;;;;;;;;32.50;24.25;;;;;5.30;69.36;101547.88;5452939;25;66795;-60
2024/04/23 06:40:58;;;;;;;;;28.50;23.50;;;;;5.35;69.72;101553.09;5460072;25;52026;-62
2024/04/23 06:43:24;;;;;;;;;27.33;22.67;;;;;5.38;69.99;101558.28;5443017;26;73050;-59
2024/04/23 06:45:53;;;;;;;;;28.00;21.25;;;;;5.42;69.75;101556.59;5442647;25;68041;-59
2024/04/23 06:48:18;;;;;;;;;28.50;20.50;;;;;5.46;69.87;101553.19;5458959;26;48707;-59
2024/04/23 06:50:43;;;;;;;;;32.33;25.33;;;;;5.57;69.82;101558.44;5454307;25;71968;-59
2024/04/23 06:53:08;;;;;;;;;27.50;22.25;;;;;5.62;69.17;101554.16;5440292;25;57924;-59
2024/04/23 06:55:34;;;;;;;;;31.75;23.75;;;;;5.68;69.24;101546.41;5443890;26;70740;-60
2024/04/23 06:57:59;;;;;;;;;26.50;21.50;;;;;5.76;70.00;101547.31;5444405;26;55028;-59
2024/04/23 07:00:25;;;;;;;;;33.67;23.00;;;;;5.83;69.11;101558.63;5451631;26;72401;-59
2024/04/23 07:02:50;;;;;;;;;28.50;21.25;;;;;5.86;68.29;101553.44;5443263;26;44965;-60
2024/04/23 07:05:15;;;;;;;;;27.75;20.75;;;;;5.95;68.08;101550.00;5429857;25;67865;-59
2024/04/23 07:07:41;;;;;;;;;31.50;22.50;;;;;6.02;69.25;101555.28;5451507;26;48269;-60
2024/04/23 07:10:07;;;;;;;;;32.75;25.50;;;;;6.10;68.55;101562.25;5452154;25;44529;-59
2024/04/23 07:12:33;;;;;;;;;32.75;21.50;;;;;6.16;67.85;101560.56;5448262;25;43860;-60
2024/04/23 07:14:58;;;;;;;;;31.25;25.00;;;;;6.20;68.44;101554.50;5465446;25;43931;-59
2024/04/23 07:17:24;;;;;;;;;30.00;26.25;;;;;6.24;67.83;101558.00;5450622;25;43977;-59
2024/04/23 07:19:49;;;;;;;;;39.75;28.00;;;;;6.31;67.71;101551.09;5455716;25;52756;-59
2024/04/23 07:22:14;;;;;;;;;29.00;21.25;;;;;6.39;67.84;101551.97;5441037;25;74181;-58
2024/04/23 07:24:40;;;;;;;;;23.00;18.50;;;;;6.43;67.87;101561.53;5429226;26;70373;-60
2024/04/23 07:27:05;;;;;;;;;34.75;27.75;;;;;6.49;67.74;101550.28;5455792;25;44058;-56
2024/04/23 07:29:31;;;;;;;;;29.75;27.00;;;;;6.51;67.22;101552.00;5428304;26;66258;-60
2024/04/23 07:31:56;;;;;;;;;34.75;24.25;;;;;6.54;68.06;101543.38;5427949;26;55839;-58
2024/04/23 07:34:22;;;;;;;;;34.50;26.25;;;;;6.60;68.50;101545.97;5449981;26;43927;-60
2024/04/23 07:36:48;;;;;;;;;32.50;24.50;;;;;6.64;67.65;101545.13;5465440;25;43978;-58
2024/04/23 07:39:13;;;;;;;;;33.00;26.75;;;;;6.67;67.73;101546.84;5429536;26;43896;-57
2024/04/23 07:41:40;;;;;;;;;31.25;23.75;;;;;6.71;66.92;101552.09;5428973;26;44056;-59
2024/04/23 07:44:05;;;;;;;;;26.75;21.25;;;;;6.75;67.60;101548.59;5427856;26;43798;-59
2024/04/23 07:46:31;;;;;;;;;35.75;26.00;;;;;6.81;67.87;101558.16;5435079;25;67044;-59
2024/04/23 07:48:56;;;;;;;;;30.00;26.50;;;;;6.84;66.42;101552.97;5441225;26;43861;-60
2024/04/23 07:51:21;;;;;;;;;34.75;23.50;;;;;6.84;66.31;101553.81;5453788;25;71735;-60
2024/04/23 07:53:47;;;;;;;;;28.25;22.25;;;;;6.88;67.11;101556.44;5428785;26;57866;-60
2024/04/23 07:56:13;;;;;;;;;24.00;22.75;;;;;6.91;66.82;101548.66;5434168;25;69333;-59
2024/04/23 07:58:38;;;;;;;;;36.75;25.00;;;;;6.98;66.08;101550.38;5449695;26;44200;-60
2024/04/23 08:01:04;;;;;;;;;35.00;24.50;;;;;7.06;65.48;101555.59;5429738;26;47330;-60
2024/04/23 08:03:29;;;;;;;;;31.25;24.25;;;;;7.12;65.08;101543.44;5448276;26;44643;-60
2024/04/23 08:05:55;;;;;;;;;26.75;20.25;;;;;7.16;65.67;101563.41;5447583;25;43656;-60
2024/04/23 08:08:21;;;;;;;;;30.50;22.50;;;;;7.17;65.26;101548.63;5450149;25;44336;-60
2024/04/23 08:10:46;;;;;;;;;24.25;21.25;;;;;7.25;63.64;101551.25;5456421;25;44938;-60
2024/04/23 08:13:12;;;;;;;;;28.50;19.50;;;;;7.28;64.20;101557.34;5441695;26;44004;-60
2024/04/23 08:15:38;;;;;;;;;21.50;18.75;;;;;7.31;63.12;101552.13;5432719;25;44413;-60
2024/04/23 08:18:03;;;;;;;;;27.25;18.00;;;;;7.37;62.42;101559.94;5438156;25;43796;-60
2024/04/23 08:20:29;;;;;;;;;19.75;14.50;;;;;7.41;62.27;101551.25;5465169;26;44755;-60
2024/04/23 08:22:55;;;;;;;;;19.75;18.25;;;;;7.49;62.67;101552.97;5466561;25;44000;-60
2024/04/23 08:25:21;;;;;;;;;16.00;14.75;;;;;7.56;60.74;101557.28;5466506;25;44133;-61
2024/04/23 08:27:46;;;;;;;;;16.00;12.75;;;;;7.60;60.78;101557.31;5457397;25;71456;-59
2024/04/23 08:30:11;;;;;;;;;27.00;15.00;;;;;7.69;59.62;101553.81;5465580;26;44004;-58
2024/04/23 08:32:37;;;;;;;;;10.75;10.75;;;;;7.76;59.59;101557.28;5462384;26;71039;-59
2024/04/23 08:35:03;;;;;;;;;13.75;10.25;;;;;7.82;57.95;101553.78;5451138;26;43998;-59
2024/04/23 08:37:28;;;;;;;;;7.75;7.25;;;;;7.88;58.16;101556.38;5439566;25;44047;-60
2024/04/23 08:39:53;;;;;;;;;14.50;10.50;;;;;7.93;56.93;101549.41;5428720;26;62501;-59
2024/04/23 08:42:21;;;;;;;;;14.25;9.75;;;;;8.03;56.46;101545.91;5438030;26;61785;-59
2024/04/23 08:44:51;;;;;;;;;9.75;8.50;;;;;8.09;55.87;101555.44;5436776;25;43853;-59
2024/04/23 08:47:16;;;;;;;;;15.00;11.50;;;;;8.15;55.55;101556.28;5452360;25;43852;-59
2024/04/23 08:49:43;;;;;;;;;14.50;9.00;;;;;8.15;54.64;101555.44;5429426;26;45306;-58
2024/04/23 08:52:09;;;;;;;;;15.25;12.75;;;;;8.20;55.09;101547.56;5443104;25;43866;-57
2024/04/23 08:54:35;;;;;;;;;13.00;9.50;;;;;8.27;55.15;101555.38;5461127;26;53264;-60
2024/04/23 08:57:00;;;;;;;;;9.00;7.25;;;;;8.30;53.59;101546.66;5463522;25;70819;-59
2024/04/23 08:59:26;;;;;;;;;8.75;7.00;;;;;8.32;52.52;101551.03;5457827;26;59161;-59
2024/04/23 09:01:58;;;;;;;;;3.50;2.25;;;;;8.29;50.55;101545.81;5443953;26;63559;-60
2024/04/23 09:04:25;;;;;;;;;5.00;5.00;;;;;8.29;51.47;101543.19;5458910;26;43860;-60
2024/04/23 09:06:50;;;;;;;;;8.00;6.75;;;;;8.38;50.96;101547.50;5460912;26;43894;-59
2024/04/23 09:09:19;;;;;;;;;7.25;4.00;;;;;8.51;51.34;101537.91;5435717;26;44650;-61
2024/04/23 09:11:45;;;;;;;;;5.00;5.00;;;;;8.65;49.77;101543.06;5450325;26;44507;-61
2024/04/23 09:14:10;;;;;;;;;5.00;5.00;;;;;8.65;49.68;101543.06;5444959;26;57078;-59
2024/04/23 09:16:35;;;;;;;;;4.00;2.00;;;;;8.64;49.21;101536.09;5461410;26;43979;-60
2024/04/23 09:19:01;;;;;;;;;8.00;3.00;;;;;8.70;48.21;101531.69;5444128;25;58333;-60
2024/04/23 09:21:26;;;;;;;;;3.00;2.00;;;;;8.72;47.01;101534.31;5428341;26;72347;-60
2024/04/23 09:23:52;;;;;;;;;0.00;0.00;;;;;8.74;45.94;101533.41;5441915;26;43960;-60
2024/04/23 09:26:17;;;;;;;;;4.25;2.00;;;;;8.77;45.29;101522.09;5464314;25;43865;-58
2024/04/23 09:28:45;;;;;;;;;5.25;3.50;;;;;8.82;45.20;101532.47;5439142;25;74100;-59
2024/04/23 09:31:15;;;;;;;;;3.00;2.00;;;;;8.84;44.33;101522.94;5463788;25;43833;-60
2024/04/23 09:33:51;;;;;;;;;2.50;2.50;;;;;8.85;43.28;101529.84;5454607;26;43877;-60
2024/04/23 09:36:16;;;;;;;;;3.00;2.25;;;;;8.85;42.31;101514.19;5462992;25;44162;-59
2024/04/23 09:38:41;;;;;;;;;2.50;1.50;;;;;8.91;42.95;101519.41;5456742;25;75198;-60
2024/04/23 09:41:08;;;;;;;;;1.00;1.00;;;;;8.97;43.79;101523.69;5442543;26;72587;-59
2024/04/23 09:43:34;;;;;;;;;3.50;3.00;;;;;9.02;43.17;101516.69;5437321;25;43799;-61
2024/04/23 09:46:02;;;;;;;;;3.00;3.00;;;;;9.07;42.68;101509.69;5442372;25;43922;-61
2024/04/23 09:48:32;;;;;;;;;4.75;2.75;;;;;9.16;42.88;101508.75;5432779;26;45954;-60
2024/04/23 09:51:06;;;;;;;;;2.00;2.00;;;;;9.22;42.85;101508.69;5428785;26;44399;-59
2024/04/23 09:53:33;;;;;;;;;2.75;1.50;;;;;9.28;41.85;101503.41;5427286;26;43994;-60
2024/04/23 09:56:05;;;;;;;;;3.00;1.50;;;;;9.37;41.23;101508.56;5462544;26;44009;-59
2024/04/23 09:58:32;;;;;;;;;5.00;2.00;;;;;9.40;41.28;101498.09;5428828;25;44948;-59
2024/04/23 10:00:58;;;;;;;;;4.25;2.25;;;;;9.53;41.22;101503.19;5440117;26;44074;-60
2024/04/23 10:03:24;;;;;;;;;6.00;2.00;;;;;9.52;39.00;101498.81;5464969;25;43941;-59
2024/04/23 10:06:10;;;;;;;;;3.00;2.00;;;;;9.51;39.81;101500.59;5461842;25;44008;-59
2024/04/23 10:09:02;;;;;;;;;1.00;1.00;;;;;9.49;39.15;101490.16;5442755;26;43893;-59
2024/04/23 10:11:36;;;;;;;;;2.00;2.00;;;;;9.53;38.37;101492.72;5450547;26;43810;-58
2024/04/23 10:14:02;;;;;;;;;1.25;1.00;;;;;9.52;37.82;101486.63;5463337;25;43900;-60
2024/04/23 10:16:39;;;;;;;;;2.75;1.00;;;;;9.52;37.49;101475.31;5462168;26;43999;-60
2024/04/23 10:19:09;;;;;;;;;4.00;2.00;;;;;9.60;38.46;101489.16;5448620;26;44878;-61
2024/04/23 10:21:37;;;;;;;;;1.00;1.00;;;;;9.73;37.79;101485.53;5421238;26;44377;-61
2024/04/23 10:24:09;;;;;;;;;1.50;1.50;;;;;9.80;38.53;101488.94;5454768;26;44048;-61
2024/04/23 10:26:37;;;;;;;;;1.00;1.00;;;;;9.86;37.63;101483.63;5461632;25;44007;-60
2024/04/23 10:29:03;;;;;;;;;2.75;2.75;;;;;9.86;38.46;101474.06;5432535;25;45716;-61
2024/04/23 10:31:30;;;;;;;;;10.25;4.00;;;;;9.95;39.08;101475.69;5442865;26;44044;-61
2024/04/23 10:33:56;;;;;;;;;3.75;3.00;;;;;10.06;39.31;101481.63;5430783;26;43828;-61
2024/04/23 10:36:22;;;;;;;;;2.00;1.75;;;;;10.16;38.12;101479.75;5442487;25;69910;-61
2024/04/23 10:38:50;;;;;;;;;2.50;2.00;;;;;10.25;38.46;101476.16;5430022;26;44002;-60
2024/04/23 10:41:17;;;;;;;;;2.50;2.00;;;;;10.33;38.34;101479.56;5443233;26;44575;-60
2024/04/23 10:43:43;;;;;;;;;4.00;3.00;;;;;10.36;37.26;101483.91;5440978;26;43750;-60
2024/04/23 10:46:09;;;;;;;;;2.00;2.00;;;;;10.31;38.30;101477.84;5442748;25;44072;-60
2024/04/23 10:48:37;;;;;;;;;1.75;1.75;;;;;10.29;37.73;101477.84;5453789;25;46414;-60
2024/04/23 10:51:03;;;;;;;;;3.50;3.00;;;;;10.28;38.31;101476.13;5458771;25;43930;-61
2024/04/23 10:53:35;;;;;;;;;3.75;2.00;;;;;10.25;37.50;101457.84;5460200;25;44032;-60
2024/04/23 10:56:00;;;;;;;;;2.00;2.00;;;;;10.21;36.87;101475.31;5459382;25;44131;-60
2024/04/23 10:58:26;;;;;;;;;4.00;2.75;;;;;10.16;36.90;101458.81;5452105;26;44172;-61
2024/04/23 11:01:03;;;;;;;;;7.00;3.00;;;;;10.21;37.48;101461.41;5430604;25;43975;-61
2024/04/23 11:03:30;;;;;;;;;2.00;1.00;;;;;10.25;36.84;101456.13;5458219;25;43967;-60
2024/04/23 11:05:55;;;;;;;;;3.50;2.25;;;;;10.28;37.02;101452.56;5451021;25;44262;-60
2024/04/23 11:08:24;;;;;;;;;5.00;2.00;;;;;10.31;36.64;101460.41;5449464;25;44658;-59
2024/04/23 11:10:51;;;;;;;;;2.50;2.50;;;;;10.39;37.36;101444.59;5463297;25;43643;-60
2024/04/23 11:13:30;;;;;;;;;3.00;3.00;;;;;10.51;37.83;101452.25;5451557;26;43917;-61
2024/04/23 11:16:01;;;;;;;;;3.75;2.50;;;;;10.59;36.68;101433.84;5442389;25;44078;-60
2024/04/23 11:18:37;;;;;;;;;9.25;5.75;;;;;10.66;36.37;101448.56;5432041;25;44809;-60
2024/04/23 11:21:03;;;;;;;;;5.00;2.25;;;;;10.61;36.26;101432.91;5436410;26;44337;-61
2024/04/23 11:23:29;;;;;;;;;12.25;6.00;;;;;10.62;36.38;101433.78;5437735;26;43836;-60
2024/04/23 11:25:55;;;;;;;;;5.25;3.25;;;;;10.69;36.46;101448.50;5456232;25;72684;-60